Homeport Seattle

Current conditions, outlook, and status of Seattle.

 



Today is Sweetmorn, the 2nd day of Bureaucracy in the YOLD 3188

Content-type:text/html SDOT BRIDGE MINDER

Seattle Bridges

01:33:22 AM

Ballard OPEN   10:46:54 PM

Fremont OPEN   10:35:13 PM

University OPEN   10:19:40 PM

Montlake OPEN   2:35:27 PM

Lower Spokane OPEN   2:47:02 PM

1st Ave S OPEN   4:44:42 PM

South Park  

Note: Bridge data is only as reliable as the
@sdotbridges Twitter feed.




Seattle Tides

Click images to embiggen or to change display options




Content-type:text/html

national weather service

2022/08/09 07:53 KSEA 090753Z 21008KT 10SM SCT160 16/13 A2997 RMK AO2 SLP151 T01610133 403280161
2022/08/09 07:53 KBFI 090753Z 21004KT 10SM CLR 17/14 A2996 RMK AO2 SLP143 T01720139 403110167


  KSEA KBFI
  SeaTac Airport Boeing Field
day: 09 09
time: 0753 0753
type: Automated Automated
cond: Partly Cloudy Clear
     
Winds    
     
mph: 9 4
mph gusting: 0 0
kts: 8 4
kts gusting: 0 0
direction: 210 210
direction: Southwest Southwest
     
Temperature and Humidity    
     
temp F: 60 62
dew point F: 55 57
temp C: 16 17
dew point C: 13 14
rel. humidity: 82 82
     
windchill F: 58 62
windchill C: 14 16
heat index F: 71 70
heat index C: 21 21
     
Clouds and Visibility    
     
cloud cover: Partly Cloudy Clear
visibility mi: 10 10
visibility km: 16 16
     
Air pressure    
     
in HG: 29.97 29.96
mm HG: 761 760
kg/cm: 1.034912052 1.034566736
psi: 14.71988538 14.71497384
millibar: 1014 1014
     
Experimental and Esoteric    
     
prec tmp: T01610133 T01720139
storm:
sea inHG: 29.97 29.95
sea mmHG: 761 760
sea kgcm: 1.035117772 1.034301996
sea psi: 14.72280738 14.71120434
sea mbar: 1015 1014
     



NOAA Weather Radio Seattle -- KHB60
[ continuous ]

KHB60 coverage map

[ view larger map ]

 


2022.08.9

8 : 33 UTC


Local Metric Time

3.56


Unix epoch

1660034001

stardate

 

External Links

weather

[ NOAA weather radio ]

Fire Department 911 Incidents

another date (mm/dd/yyyy)

Puget Sound Waters

salish sea hydrophone network

[ Home || seattle aquarium | pt. townsend | san juan isl | lime kiln s.p ]

Traffic

KC DOT Cameras

 


- * - poop - * -